createdAt,value
2022-10-22T00:02:15.460Z,97342.50
2022-10-22T00:04:41.734Z,97348.13
2022-10-22T00:07:07.996Z,97358.03
2022-10-22T00:09:34.306Z,97350.25
2022-10-22T00:12:00.494Z,97353.75
2022-10-22T00:14:26.720Z,97344.41
2022-10-22T00:16:53.014Z,97352.41
2022-10-22T00:19:19.381Z,97359.63
2022-10-22T00:21:45.598Z,97357.75
2022-10-22T00:24:11.913Z,97348.13
2022-10-22T00:26:38.341Z,97356.94
2022-10-22T00:29:04.547Z,97369.50
2022-10-22T00:31:30.794Z,97370.59
2022-10-22T00:33:57.042Z,97367.91
2022-10-22T00:36:23.993Z,97376.97
2022-10-22T00:38:50.206Z,97377.78
2022-10-22T00:41:16.437Z,97381.53
2022-10-22T00:43:42.652Z,97403.72
2022-10-22T00:46:08.881Z,97392.25
2022-10-22T00:48:35.473Z,97391.44
2022-10-22T00:51:02.586Z,97395.16
2022-10-22T00:53:28.829Z,97389.81
2022-10-22T00:55:56.173Z,97398.91
2022-10-22T00:58:22.477Z,97411.47
2022-10-22T01:00:49.122Z,97424.03
2022-10-22T01:03:15.371Z,97406.38
2022-10-22T01:05:41.758Z,97401.03
2022-10-22T01:08:08.072Z,97401.28
2022-10-22T01:10:34.777Z,97399.72
2022-10-22T01:13:03.268Z,97390.88
2022-10-22T01:15:29.522Z,97390.88
2022-10-22T01:17:55.818Z,97386.34
2022-10-22T01:20:22.520Z,97379.38
2022-10-22T01:22:48.964Z,97383.94
2022-10-22T01:25:15.423Z,97376.16
2022-10-22T01:27:42.116Z,97367.34
2022-10-22T01:30:08.653Z,97371.63
2022-10-22T01:32:34.907Z,97368.13
2022-10-22T01:35:01.125Z,97356.13
2022-10-22T01:37:27.338Z,97353.44
2022-10-22T01:39:53.533Z,97355.31
2022-10-22T01:42:19.776Z,97354.00
2022-10-22T01:44:47.420Z,97362.00
2022-10-22T01:47:13.705Z,97363.06
2022-10-22T01:49:40.209Z,97359.56
2022-10-22T01:52:06.463Z,97366.81
2022-10-22T01:54:32.707Z,97365.44
2022-10-22T01:57:02.262Z,97344.59
2022-10-22T01:59:28.490Z,97368.38
2022-10-22T02:01:54.769Z,97372.91
2022-10-22T02:04:21.256Z,97372.16
2022-10-22T02:06:47.514Z,97373.19
2022-10-22T02:09:14.142Z,97370.53
2022-10-22T02:11:40.450Z,97374.00
2022-10-22T02:14:06.715Z,97374.28
2022-10-22T02:16:33.218Z,97376.69
2022-10-22T02:18:59.905Z,97369.69
2022-10-22T02:21:26.311Z,97374.28
2022-10-22T02:23:52.874Z,97369.69
2022-10-22T02:26:19.182Z,97382.84
2022-10-22T02:28:45.402Z,97387.38
2022-10-22T02:31:11.751Z,97380.94
2022-10-22T02:33:38.049Z,97377.47
2022-10-22T02:36:04.281Z,97382.84
2022-10-22T02:38:30.573Z,97379.34
2022-10-22T02:40:56.807Z,97376.94
2022-10-22T02:43:23.017Z,97374.28
2022-10-22T02:45:49.242Z,97378.00
2022-10-22T02:48:15.632Z,97378.00
2022-10-22T02:50:41.953Z,97387.09
2022-10-22T02:53:08.189Z,97380.13
2022-10-22T02:55:34.433Z,97386.28
2022-10-22T02:58:01.009Z,97387.09
2022-10-22T03:00:27.260Z,97383.88
2022-10-22T03:02:55.410Z,97390.28
2022-10-22T03:05:21.704Z,97386.00
2022-10-22T03:07:48.034Z,97382.50
2022-10-22T03:10:14.300Z,97390.53
2022-10-22T03:12:40.482Z,97384.41
2022-10-22T03:15:06.712Z,97387.06
2022-10-22T03:17:32.910Z,97401.22
2022-10-22T03:19:59.140Z,97399.63
2022-10-22T03:22:25.477Z,97398.03
2022-10-22T03:24:51.684Z,97399.06
2022-10-22T03:27:17.896Z,97412.44
2022-10-22T03:29:44.114Z,97420.44
2022-10-22T03:32:10.328Z,97400.97
2022-10-22T03:34:36.583Z,97406.53
2022-10-22T03:37:02.827Z,97404.13
2022-10-22T03:39:29.037Z,97412.16
2022-10-22T03:41:55.234Z,97419.63
2022-10-22T03:44:21.505Z,97424.16
2022-10-22T03:46:47.703Z,97428.66
2022-10-22T03:49:13.968Z,97425.44
2022-10-22T03:51:40.894Z,97433.72
2022-10-22T03:54:07.114Z,97432.91
2022-10-22T03:56:33.346Z,97441.19
2022-10-22T03:58:59.562Z,97444.94
2022-10-22T04:01:25.860Z,97412.28
2022-10-22T04:03:52.120Z,97432.91
2022-10-22T04:06:18.465Z,97437.69
2022-10-22T04:08:44.760Z,97440.63
2022-10-22T04:11:10.982Z,97443.56
2022-10-22T04:13:37.167Z,97447.03
2022-10-22T04:16:03.323Z,97452.66
2022-10-22T04:18:29.519Z,97456.38
2022-10-22T04:20:55.787Z,97463.56
2022-10-22T04:23:21.964Z,97469.97
2022-10-22T04:25:48.086Z,97475.31
2022-10-22T04:28:14.347Z,97474.50
2022-10-22T04:30:40.480Z,97480.94
2022-10-22T04:33:06.669Z,97479.31
2022-10-22T04:35:33.226Z,97478.25
2022-10-22T04:37:59.365Z,97475.84
2022-10-22T04:40:25.578Z,97475.84
2022-10-22T04:42:51.730Z,97480.38
2022-10-22T04:45:18.000Z,97474.22
2022-10-22T04:47:44.350Z,97477.97
2022-10-22T04:50:10.584Z,97472.63
2022-10-22T04:52:36.783Z,97467.28
2022-10-22T04:55:02.939Z,97469.94
2022-10-22T04:57:29.069Z,97463.81
2022-10-22T04:59:55.222Z,97464.88
2022-10-22T05:02:21.380Z,97453.38
2022-10-22T05:04:47.616Z,97456.06
2022-10-22T05:07:13.813Z,97469.66
2022-10-22T05:09:39.935Z,97458.97
2022-10-22T05:12:06.131Z,97450.41
2022-10-22T05:14:32.327Z,97449.63
2022-10-22T05:16:58.574Z,97464.03
2022-10-22T05:19:24.948Z,97455.22
2022-10-22T05:21:51.105Z,97464.28
2022-10-22T05:24:17.317Z,97460.00
2022-10-22T05:26:44.489Z,97469.09
2022-10-22T05:29:10.698Z,97471.75
2022-10-22T05:31:36.918Z,97474.69
2022-10-22T05:34:03.061Z,97476.53
2022-10-22T05:36:29.287Z,97477.63
2022-10-22T05:38:55.563Z,97484.00
2022-10-22T05:41:21.682Z,97484.00
2022-10-22T05:43:48.022Z,97482.41
2022-10-22T05:46:17.563Z,97482.41
2022-10-22T05:48:46.081Z,97481.59
2022-10-22T05:51:12.249Z,97480.00
2022-10-22T05:53:38.420Z,97483.97
2022-10-22T05:56:04.597Z,97487.44
2022-10-22T05:58:31.018Z,97489.31
2022-10-22T06:00:57.226Z,97490.38
2022-10-22T06:03:23.548Z,97503.47
2022-10-22T06:05:49.749Z,97502.91
2022-10-22T06:08:18.964Z,97502.09
2022-10-22T06:10:45.388Z,97507.44
2022-10-22T06:13:11.517Z,97509.31
2022-10-22T06:15:37.641Z,97518.13
2022-10-22T06:18:03.830Z,97511.19
2022-10-22T06:20:30.036Z,97512.22
2022-10-22T06:22:56.397Z,97520.25
2022-10-22T06:25:22.579Z,97525.34
2022-10-22T06:27:48.783Z,97532.53
2022-10-22T06:30:14.998Z,97531.47
2022-10-22T06:32:41.390Z,97528.81
2022-10-22T06:35:07.800Z,97533.09
2022-10-22T06:37:33.956Z,97548.31
2022-10-22T06:40:00.147Z,97549.13
2022-10-22T06:42:26.286Z,97555.78
2022-10-22T06:44:52.593Z,97557.41
2022-10-22T06:50:02.133Z,97580.66
2022-10-22T06:52:28.264Z,97597.00
2022-10-22T06:54:54.465Z,97594.09
2022-10-22T06:57:20.865Z,97588.31
2022-10-22T06:59:47.110Z,97600.34
2022-10-22T07:02:13.346Z,97601.75
2022-10-22T07:04:39.492Z,97598.38
2022-10-22T07:07:05.765Z,97602.66
2022-10-22T07:09:31.929Z,97607.00
2022-10-22T07:11:58.057Z,97622.81
2022-10-22T07:14:24.270Z,97621.75
2022-10-22T07:16:52.499Z,97641.03
2022-10-22T07:19:18.630Z,97648.88
2022-10-22T07:21:44.776Z,97659.84
2022-10-22T07:24:11.027Z,97660.91
2022-10-22T07:26:38.353Z,97670.84
2022-10-22T07:29:04.648Z,97684.25
2022-10-22T07:31:30.921Z,97685.09
2022-10-22T07:33:57.102Z,97688.56
2022-10-22T07:36:23.374Z,97691.53
2022-10-22T07:38:49.533Z,97702.06
2022-10-22T07:41:15.755Z,97724.13
2022-10-22T07:43:42.132Z,97716.13
2022-10-22T07:46:08.274Z,97716.44
2022-10-22T07:48:34.921Z,97713.84
2022-10-22T07:51:01.079Z,97723.75
2022-10-22T07:53:27.277Z,97731.88
2022-10-22T07:55:53.404Z,97737.00
2022-10-22T07:58:19.585Z,97744.00
2022-10-22T08:00:45.854Z,97742.41
2022-10-22T08:03:12.162Z,97755.03
2022-10-22T08:05:38.412Z,97768.97
2022-10-22T08:08:04.766Z,97755.28
2022-10-22T08:10:30.911Z,97757.72
2022-10-22T08:12:57.082Z,97733.06
2022-10-22T08:15:23.219Z,97724.72
2022-10-22T08:17:49.350Z,97742.44
2022-10-22T08:20:15.715Z,97762.28
2022-10-22T08:22:41.918Z,97781.34
2022-10-22T08:25:08.070Z,97782.41
2022-10-22T08:27:34.266Z,97756.38
2022-10-22T08:30:00.399Z,97779.44
2022-10-22T08:34:53.606Z,97785.03
2022-10-22T08:37:19.835Z,97755.75
2022-10-22T08:39:45.972Z,97774.28
2022-10-22T08:42:12.329Z,97787.66
2022-10-22T08:44:38.656Z,97756.56
2022-10-22T08:47:04.796Z,97753.06
2022-10-22T08:49:31.057Z,97731.13
2022-10-22T08:51:57.244Z,97736.81
2022-10-22T08:54:23.428Z,97742.94
2022-10-22T08:59:32.744Z,97752.06
2022-10-22T09:01:58.887Z,97764.13
2022-10-22T09:04:25.206Z,97768.16
2022-10-22T09:06:53.594Z,97770.31
2022-10-22T09:09:23.517Z,97770.03
2022-10-22T09:11:49.680Z,97779.66
2022-10-22T09:16:41.954Z,97790.13
2022-10-22T09:19:08.100Z,97785.28
2022-10-22T09:21:34.285Z,97786.63
2022-10-22T09:24:00.414Z,97797.13
2022-10-22T09:26:26.551Z,97787.44
2022-10-22T09:28:52.769Z,97790.41
2022-10-22T09:31:19.206Z,97796.34
2022-10-22T09:33:45.449Z,97787.72
2022-10-22T09:36:11.679Z,97796.03
2022-10-22T09:38:37.859Z,97798.44
2022-10-22T09:41:04.201Z,97800.31
2022-10-22T09:43:30.473Z,97783.16
2022-10-22T09:45:56.772Z,97787.16
2022-10-22T09:48:22.981Z,97794.44
2022-10-22T09:50:49.278Z,97798.72
2022-10-22T09:53:15.563Z,97769.19
2022-10-22T09:55:41.726Z,97798.44
2022-10-22T09:58:07.844Z,97791.97
2022-10-22T10:00:34.004Z,97794.16
2022-10-22T10:03:00.234Z,97796.03
2022-10-22T10:05:26.471Z,97789.56
2022-10-22T10:07:52.617Z,97787.44
2022-10-22T10:10:18.805Z,97791.19
2022-10-22T10:15:11.071Z,97792.25
2022-10-22T10:17:37.219Z,97793.06
2022-10-22T10:20:04.301Z,97795.75
2022-10-22T10:22:30.824Z,97785.84
2022-10-22T10:24:57.071Z,97777.25
2022-10-22T10:27:23.963Z,97785.03
2022-10-22T10:29:50.168Z,97773.53
2022-10-22T10:32:18.055Z,97763.63
2022-10-22T10:34:47.278Z,97755.31
2022-10-22T10:37:13.431Z,97762.81
2022-10-22T10:39:39.577Z,97769.78
2022-10-22T10:42:05.735Z,97763.66
2022-10-22T10:44:31.879Z,97758.25
2022-10-22T10:46:59.175Z,97765.00
2022-10-22T10:49:25.425Z,97787.00
2022-10-22T10:51:52.377Z,97766.06
2022-10-22T10:54:18.602Z,97761.75
2022-10-22T10:56:44.758Z,97756.97
2022-10-22T10:59:10.905Z,97761.22
2022-10-22T11:01:37.128Z,97759.88
2022-10-22T11:04:03.528Z,97758.03
2022-10-22T11:06:29.675Z,97767.13
2022-10-22T11:08:55.940Z,97763.38
2022-10-22T11:11:22.153Z,97774.38
2022-10-22T11:13:48.409Z,97743.00
2022-10-22T11:16:14.657Z,97760.44
2022-10-22T11:18:40.884Z,97746.22
2022-10-22T11:21:07.108Z,97754.25
2022-10-22T11:23:33.303Z,97762.31
2022-10-22T11:25:59.842Z,97760.44
2022-10-22T11:28:26.072Z,97755.84
2022-10-22T11:30:52.294Z,97758.03
2022-10-22T11:33:18.523Z,97752.91
2022-10-22T11:35:45.822Z,97752.63
2022-10-22T11:38:12.041Z,97753.72
2022-10-22T11:40:38.351Z,97749.97
2022-10-22T11:43:04.541Z,97747.28
2022-10-22T11:45:30.959Z,97742.69
2022-10-22T11:47:57.175Z,97755.31
2022-10-22T11:50:23.382Z,97749.69
2022-10-22T11:52:49.605Z,97745.13
2022-10-22T11:55:15.825Z,97746.72
2022-10-22T11:57:42.184Z,97744.56
2022-10-22T12:00:08.649Z,97747.78
2022-10-22T12:02:34.883Z,97741.88
2022-10-22T12:05:01.828Z,97740.78
2022-10-22T12:07:28.050Z,97737.59
2022-10-22T12:09:54.384Z,97733.81
2022-10-22T12:12:20.614Z,97738.63
2022-10-22T12:14:46.853Z,97730.81
2022-10-22T12:17:13.054Z,97734.91
2022-10-22T12:19:39.282Z,97722.56
2022-10-22T12:22:05.514Z,97714.00
2022-10-22T12:24:31.787Z,97711.88
2022-10-22T12:26:58.203Z,97710.53
2022-10-22T12:29:24.439Z,97699.00
2022-10-22T12:31:50.622Z,97700.63
2022-10-22T12:34:16.866Z,97696.59
2022-10-22T12:36:43.128Z,97705.16
2022-10-22T12:39:09.362Z,97721.00
2022-10-22T12:41:35.628Z,97709.16
2022-10-22T12:44:01.877Z,97718.28
2022-10-22T12:46:28.151Z,97710.75
2022-10-22T12:48:54.580Z,97723.63
2022-10-22T12:51:21.044Z,97732.22
2022-10-22T12:53:47.338Z,97723.06
2022-10-22T12:56:13.523Z,97733.53
2022-10-22T12:58:39.724Z,97730.56
2022-10-22T13:01:06.048Z,97735.94
2022-10-22T13:03:32.432Z,97733.25
2022-10-22T13:05:58.635Z,97734.88
2022-10-22T13:10:56.041Z,97733.78
2022-10-22T13:13:22.239Z,97732.72
2022-10-22T13:15:48.472Z,97735.94
2022-10-22T13:18:15.036Z,97738.31
2022-10-22T13:20:41.349Z,97738.59
2022-10-22T13:23:07.573Z,97742.31
2022-10-22T13:25:33.885Z,97750.66
2022-10-22T13:28:00.122Z,97753.88
2022-10-22T13:30:26.440Z,97746.63
2022-10-22T13:32:52.743Z,97749.88
2022-10-22T13:35:18.984Z,97754.44
2022-10-22T13:37:45.227Z,97749.34
2022-10-22T13:40:11.542Z,97747.22
2022-10-22T13:42:37.933Z,97756.59
2022-10-22T13:45:04.309Z,97764.66
2022-10-22T13:47:31.756Z,97756.88
2022-10-22T13:49:57.977Z,97770.03
2022-10-22T13:52:24.225Z,97772.97
2022-10-22T13:54:50.430Z,97770.31
2022-10-22T13:57:18.689Z,97770.84
2022-10-22T13:59:44.931Z,97769.47
2022-10-22T14:02:11.206Z,97773.50
2022-10-22T14:04:37.421Z,97777.25
2022-10-22T14:07:04.058Z,97777.25
2022-10-22T14:09:30.401Z,97779.44
2022-10-22T14:11:56.683Z,97772.44
2022-10-22T14:14:22.947Z,97768.16
2022-10-22T14:16:49.193Z,97774.59
2022-10-22T14:19:15.430Z,97752.59
2022-10-22T14:21:41.794Z,97770.84
2022-10-22T14:24:09.582Z,97770.84
2022-10-22T14:26:38.419Z,97776.22
2022-10-22T14:29:09.353Z,97771.91
2022-10-22T14:31:36.318Z,97771.34
2022-10-22T14:34:02.640Z,97772.97
2022-10-22T14:36:28.855Z,97764.94
2022-10-22T14:38:55.042Z,97764.94
2022-10-22T14:41:21.285Z,97766.53
2022-10-22T14:43:47.548Z,97761.44
2022-10-22T14:46:13.887Z,97768.69
2022-10-22T14:48:40.112Z,97759.03
2022-10-22T14:51:06.368Z,97768.94
2022-10-22T14:53:32.749Z,97773.53
2022-10-22T14:55:58.982Z,97771.91
2022-10-22T14:58:25.230Z,97775.69
2022-10-22T15:00:51.498Z,97777.28
2022-10-22T15:03:17.804Z,97784.00
2022-10-22T15:05:44.437Z,97787.47
2022-10-22T15:08:11.127Z,97795.53
2022-10-22T15:10:37.378Z,97793.94
2022-10-22T15:13:03.688Z,97802.25
2022-10-22T15:15:34.178Z,97806.00
2022-10-22T15:18:05.566Z,97812.47
2022-10-22T15:20:31.843Z,97803.59
2022-10-22T15:22:58.078Z,97810.06
2022-10-22T15:25:24.478Z,97812.75
2022-10-22T15:27:52.483Z,97812.19
2022-10-22T15:30:19.756Z,97805.22
2022-10-22T15:32:46.011Z,97808.97
2022-10-22T15:35:12.417Z,97815.44
2022-10-22T15:37:38.851Z,97820.25
2022-10-22T15:40:05.221Z,97819.44
2022-10-22T15:42:31.925Z,97817.03
2022-10-22T15:44:58.194Z,97818.09
2022-10-22T15:47:24.640Z,97812.22
2022-10-22T15:49:50.921Z,97825.09
2022-10-22T15:52:17.187Z,97824.56
2022-10-22T15:54:43.442Z,97817.59
2022-10-22T15:57:09.640Z,97820.50
2022-10-22T15:59:35.918Z,97817.31
2022-10-22T16:02:02.194Z,97831.78
2022-10-22T16:04:28.389Z,97834.75
2022-10-22T16:06:54.686Z,97832.34
2022-10-22T16:09:21.002Z,97836.88
2022-10-22T16:11:47.268Z,97837.44
2022-10-22T16:14:13.562Z,97833.13
2022-10-22T16:16:39.991Z,97839.56
2022-10-22T16:19:06.510Z,97839.03
2022-10-22T16:21:32.937Z,97841.19
2022-10-22T16:24:03.784Z,97843.06
2022-10-22T16:26:32.437Z,97839.84
2022-10-22T16:28:58.628Z,97838.22
2022-10-22T16:31:24.824Z,97846.53
2022-10-22T16:33:51.077Z,97841.44
2022-10-22T16:36:17.446Z,97847.91
2022-10-22T16:38:43.670Z,97845.47
2022-10-22T16:41:09.928Z,97848.41
2022-10-22T16:43:36.104Z,97851.31
2022-10-22T16:46:02.512Z,97852.41
2022-10-22T16:48:28.802Z,97860.72
2022-10-22T16:50:55.182Z,97851.06
2022-10-22T16:53:21.655Z,97860.19
2022-10-22T16:55:47.998Z,97855.09
2022-10-22T16:58:14.314Z,97859.91
2022-10-22T17:00:40.744Z,97858.28
2022-10-22T17:03:07.029Z,97856.69
2022-10-22T17:05:33.367Z,97854.28
2022-10-22T17:07:59.681Z,97852.66
2022-10-22T17:10:25.984Z,97858.28
2022-10-22T17:12:52.239Z,97860.97
2022-10-22T17:15:18.478Z,97863.09
2022-10-22T17:17:44.709Z,97870.34
2022-10-22T17:20:11.053Z,97870.63
2022-10-22T17:22:37.500Z,97874.34
2022-10-22T17:25:03.775Z,97867.41
2022-10-22T17:27:30.142Z,97874.63
2022-10-22T17:29:56.368Z,97880.25
2022-10-22T17:32:22.764Z,97889.34
2022-10-22T17:34:49.005Z,97891.25
2022-10-22T17:37:15.390Z,97886.94
2022-10-22T17:39:41.779Z,97883.47
2022-10-22T17:42:08.014Z,97891.75
2022-10-22T17:44:34.287Z,97890.97
2022-10-22T17:47:00.542Z,97888.56
2022-10-22T17:49:26.829Z,97888.81
2022-10-22T17:51:53.128Z,97891.75
2022-10-22T17:54:19.415Z,97885.59
2022-10-22T17:56:45.892Z,97886.66
2022-10-22T17:59:12.117Z,97892.28
2022-10-22T18:01:38.334Z,97890.69
2022-10-22T18:04:04.563Z,97893.38
2022-10-22T18:06:31.824Z,97897.38
2022-10-22T18:08:58.098Z,97900.84
2022-10-22T18:11:24.381Z,97900.31
2022-10-22T18:13:50.633Z,97907.53
2022-10-22T18:16:17.118Z,97905.94
2022-10-22T18:18:43.341Z,97902.72
2022-10-22T18:21:09.613Z,97917.19
2022-10-22T18:23:35.876Z,97920.91
2022-10-22T18:26:02.105Z,97915.81
2022-10-22T18:28:28.435Z,97907.25
2022-10-22T18:30:54.670Z,97904.00
2022-10-22T18:33:21.044Z,97905.09
2022-10-22T18:35:47.267Z,97909.63
2022-10-22T18:38:13.538Z,97905.34
2022-10-22T18:40:39.787Z,97916.34
2022-10-22T18:43:06.413Z,97908.53
2022-10-22T18:45:32.786Z,97908.81
2022-10-22T18:47:59.034Z,97920.59
2022-10-22T18:50:25.291Z,97927.03
2022-10-22T18:52:51.580Z,97928.09
2022-10-22T18:55:17.792Z,97930.78
2022-10-22T18:57:45.801Z,97936.94
2022-10-22T19:00:12.045Z,97923.81
2022-10-22T19:02:38.389Z,97925.69
2022-10-22T19:05:04.649Z,97921.41
2022-10-22T19:07:33.182Z,97928.63
2022-10-22T19:09:59.463Z,97933.16
2022-10-22T19:12:25.732Z,97922.72
2022-10-22T19:14:52.754Z,97928.06
2022-10-22T19:17:19.072Z,97937.19
2022-10-22T19:19:45.312Z,97925.66
2022-10-22T19:22:11.725Z,97930.19
2022-10-22T19:24:39.385Z,97931.53
2022-10-22T19:27:05.637Z,97937.69
2022-10-22T19:29:31.861Z,97942.25
2022-10-22T19:31:58.136Z,97945.16
2022-10-22T19:34:24.390Z,97949.75
2022-10-22T19:36:50.889Z,97948.13
2022-10-22T19:39:17.095Z,97946.50
2022-10-22T19:41:43.397Z,97954.56
2022-10-22T19:44:09.669Z,97949.44
2022-10-22T19:46:35.998Z,97947.81
2022-10-22T19:49:02.350Z,97950.72
2022-10-22T19:51:28.589Z,97932.44
2022-10-22T19:53:54.974Z,97945.63
2022-10-22T19:56:21.215Z,97947.50
2022-10-22T19:58:47.494Z,97941.59
2022-10-22T20:01:14.131Z,97939.19
2022-10-22T20:03:40.415Z,97944.78
2022-10-22T20:06:06.624Z,97941.31
2022-10-22T20:08:33.420Z,97943.97
2022-10-22T20:10:59.692Z,97949.59
2022-10-22T20:13:26.054Z,97952.28
2022-10-22T20:15:52.395Z,97942.66
2022-10-22T20:18:18.597Z,97941.81
2022-10-22T20:20:44.847Z,97936.72
2022-10-22T20:23:11.179Z,97935.91
2022-10-22T20:25:37.481Z,97938.84
2022-10-22T20:28:03.685Z,97939.94
2022-10-22T20:30:29.918Z,97947.16
2022-10-22T20:32:56.289Z,97955.44
2022-10-22T20:35:22.582Z,97954.38
2022-10-22T20:37:48.793Z,97945.00
2022-10-22T20:40:17.064Z,97947.94
2022-10-22T20:42:43.668Z,97944.44
2022-10-22T20:45:10.164Z,97932.91
2022-10-22T20:47:50.823Z,97927.81
2022-10-22T20:50:17.766Z,97933.44
2022-10-22T20:52:47.109Z,97932.63
2022-10-22T20:55:13.510Z,97931.84
2022-10-22T20:57:40.195Z,97934.53
2022-10-22T21:00:06.619Z,97935.56
2022-10-22T21:02:32.891Z,97933.97
2022-10-22T21:04:59.154Z,97942.00
2022-10-22T21:07:25.609Z,97941.44
2022-10-22T21:09:52.152Z,97941.44
2022-10-22T21:12:18.384Z,97945.16
2022-10-22T21:14:44.595Z,97945.16
2022-10-22T21:17:10.831Z,97946.25
2022-10-22T21:19:37.107Z,97948.09
2022-10-22T21:22:03.433Z,97950.00
2022-10-22T21:24:30.746Z,97951.88
2022-10-22T21:26:56.939Z,97951.03
2022-10-22T21:29:23.127Z,97951.88
2022-10-22T21:31:49.314Z,97947.56
2022-10-22T21:34:15.540Z,97946.78
2022-10-22T21:36:41.808Z,97957.47
2022-10-22T21:39:08.104Z,97955.84
2022-10-22T21:41:34.345Z,97965.78
2022-10-22T21:44:00.590Z,97962.28
2022-10-22T21:46:26.863Z,97960.13
2022-10-22T21:48:53.159Z,97961.69
2022-10-22T21:51:19.523Z,97961.38
2022-10-22T21:53:45.812Z,97955.19
2022-10-22T21:56:12.152Z,97962.09
2022-10-22T21:58:38.410Z,97958.34
2022-10-22T22:01:04.746Z,97962.59
2022-10-22T22:03:31.040Z,97961.47
2022-10-22T22:05:57.326Z,97957.69
2022-10-22T22:08:23.580Z,97963.53
2022-10-22T22:10:50.232Z,97954.16
2022-10-22T22:13:16.668Z,97949.34
2022-10-22T22:15:42.998Z,97953.28
2022-10-22T22:18:09.235Z,97959.16
2022-10-22T22:20:35.585Z,97948.94
2022-10-22T22:23:01.955Z,97954.53
2022-10-22T22:25:28.187Z,97945.94
2022-10-22T22:27:54.955Z,97942.97
2022-10-22T22:30:21.163Z,97941.63
2022-10-22T22:32:47.357Z,97940.25
2022-10-22T22:35:13.561Z,97935.16
2022-10-22T22:37:40.027Z,97931.94
2022-10-22T22:40:07.127Z,97932.19
2022-10-22T22:42:33.347Z,97933.50
2022-10-22T22:44:59.686Z,97928.41
2022-10-22T22:47:26.132Z,97942.84
2022-10-22T22:49:52.362Z,97938.00
2022-10-22T22:52:18.579Z,97932.91
2022-10-22T22:54:44.874Z,97937.69
2022-10-22T22:57:11.066Z,97940.63
2022-10-22T22:59:37.327Z,97933.63
2022-10-22T23:02:03.583Z,97929.38
2022-10-22T23:04:29.807Z,97922.63
2022-10-22T23:06:58.364Z,97928.00
2022-10-22T23:09:24.610Z,97924.53
2022-10-22T23:11:50.814Z,97916.50
2022-10-22T23:14:17.124Z,97918.38
2022-10-22T23:16:43.332Z,97916.72
2022-10-22T23:19:09.524Z,97919.41
2022-10-22T23:21:35.742Z,97913.28
2022-10-22T23:24:02.033Z,97903.63
2022-10-22T23:26:28.288Z,97902.84
2022-10-22T23:28:55.178Z,97895.03
2022-10-22T23:31:21.968Z,97902.28
2022-10-22T23:33:48.279Z,97910.56
2022-10-22T23:36:14.494Z,97910.56
2022-10-22T23:38:40.709Z,97914.25
2022-10-22T23:41:07.030Z,97911.84
2022-10-22T23:43:33.286Z,97912.09
2022-10-22T23:45:59.616Z,97907.81
2022-10-22T23:48:25.886Z,97911.53
2022-10-22T23:53:19.525Z,97913.09
2022-10-22T23:55:45.828Z,97903.72
2022-10-22T23:58:12.012Z,97906.66
